Time,TemperatureF,DewpointF,PressureIn,WindDirection,WindDirectionDegrees,WindSpeedMPH,WindSpeedGustMPH,Humidity,HourlyPrecipIn,Conditions,Clouds,dailyrainin,SoftwareType,DateUTC
2013-06-05 00:00:00,76.2,72.1,29.83,SE,132,0.0,1.0,87,0.00,,---,0.00,VWS V14.01,2013-06-05 05:00:00,
2013-06-05 00:05:00,76.2,72.1,29.83,SE,129,1.0,3.0,87,0.00,,---,0.00,VWS V14.01,2013-06-05 05:05:00,
2013-06-05 00:10:00,76.2,72.1,29.82,SE,130,3.0,3.0,87,0.00,,---,0.00,VWS V14.01,2013-06-05 05:10:00,
2013-06-05 00:15:00,76.2,72.1,29.83,SE,130,3.0,3.0,87,0.00,,---,0.00,VWS V14.01,2013-06-05 05:15:00,
2013-06-05 00:20:00,76.1,71.9,29.83,SE,126,2.0,2.0,87,0.00,,---,0.00,VWS V14.01,2013-06-05 05:20:00,
2013-06-05 00:25:00,76.0,71.9,29.83,SE,136,0.0,1.0,87,0.00,,---,0.00,VWS V14.01,2013-06-05 05:25:00,
2013-06-05 00:30:00,76.0,71.9,29.82,SE,136,2.0,3.0,87,0.00,,---,0.00,VWS V14.01,2013-06-05 05:30:00,
2013-06-05 00:35:00,75.9,71.8,29.82,SE,137,1.0,1.0,87,0.00,,---,0.00,VWS V14.01,2013-06-05 05:35:00,
2013-06-05 00:40:00,75.9,71.8,29.82,SE,138,2.0,4.0,87,0.00,,---,0.00,VWS V14.01,2013-06-05 05:40:00,
2013-06-05 00:45:00,75.9,71.8,29.82,SE,140,0.0,0.0,87,0.00,,---,0.00,VWS V14.01,2013-06-05 05:45:00,
2013-06-05 00:50:00,75.9,72.1,29.83,SE,140,0.0,0.0,88,0.00,,---,0.00,VWS V14.01,2013-06-05 05:50:00,
2013-06-05 00:55:00,75.9,72.1,29.83,SE,140,2.0,2.0,88,0.00,,---,0.00,VWS V14.01,2013-06-05 05:55:00,
2013-06-05 01:00:00,75.9,72.1,29.83,SSE,152,1.0,2.0,88,0.00,,---,0.00,VWS V14.01,2013-06-05 06:00:00,
2013-06-05 01:05:00,76.0,72.2,29.83,SSE,152,1.0,1.0,88,0.00,,---,0.00,VWS V14.01,2013-06-05 06:05:00,
2013-06-05 01:10:00,76.0,72.2,29.82,SSE,150,4.0,4.0,88,0.00,,---,0.00,VWS V14.01,2013-06-05 06:10:00,
2013-06-05 01:15:00,76.0,72.2,29.82,SSE,149,0.0,0.0,88,0.00,,---,0.00,VWS V14.01,2013-06-05 06:15:00,
2013-06-05 01:20:00,76.0,72.2,29.82,SE,136,2.0,2.0,88,0.00,,---,0.00,VWS V14.01,2013-06-05 06:20:00,
2013-06-05 01:25:00,76.0,72.5,29.82,SSE,149,2.0,3.0,89,0.00,,---,0.00,VWS V14.01,2013-06-05 06:25:00,
2013-06-05 01:30:00,76.0,72.5,29.82,SE,146,4.0,4.0,89,0.00,,---,0.00,VWS V14.01,2013-06-05 06:30:00,
2013-06-05 01:35:00,76.1,72.6,29.82,SE,142,3.0,3.0,89,0.00,,---,0.00,VWS V14.01,2013-06-05 06:35:00,
2013-06-05 01:40:00,76.2,72.7,29.82,SE,141,1.0,1.0,89,0.00,,---,0.00,VWS V14.01,2013-06-05 06:40:00,
2013-06-05 01:45:00,76.2,72.7,29.82,SE,142,1.0,1.0,89,0.00,,---,0.00,VWS V14.01,2013-06-05 06:45:00,
2013-06-05 01:50:00,76.1,72.6,29.81,SE,138,2.0,3.0,89,0.00,,---,0.00,VWS V14.01,2013-06-05 06:50:00,
2013-06-05 01:55:00,76.1,72.6,29.82,SE,138,2.0,2.0,89,0.00,,---,0.00,VWS V14.01,2013-06-05 06:55:00,
2013-06-05 02:00:00,76.1,72.6,29.82,SE,142,2.0,3.0,89,0.00,,---,0.00,VWS V14.01,2013-06-05 07:00:00,
2013-06-05 02:05:00,76.0,72.5,29.81,SSE,155,1.0,1.0,89,0.00,,---,0.00,VWS V14.01,2013-06-05 07:05:00,
2013-06-05 02:10:00,76.0,72.5,29.81,SSE,155,2.0,2.0,89,0.00,,---,0.00,VWS V14.01,2013-06-05 07:10:00,
2013-06-05 02:15:00,75.9,72.4,29.81,SSE,166,3.0,6.0,89,0.00,,---,0.00,VWS V14.01,2013-06-05 07:15:00,
2013-06-05 02:20:00,75.9,72.4,29.81,SSE,150,1.0,3.0,89,0.00,,---,0.00,VWS V14.01,2013-06-05 07:20:00,
2013-06-05 02:25:00,75.9,72.4,29.81,South,172,4.0,4.0,89,0.00,,---,0.00,VWS V14.01,2013-06-05 07:25:00,
2013-06-05 02:30:00,75.8,72.3,29.81,SSE,163,1.0,3.0,89,0.00,,---,0.00,VWS V14.01,2013-06-05 07:30:00,
2013-06-05 02:35:00,75.8,72.3,29.81,SSE,157,3.0,3.0,89,0.00,,---,0.00,VWS V14.01,2013-06-05 07:35:00,
2013-06-05 02:40:00,75.8,72.3,29.80,SSE,153,4.0,4.0,89,0.00,,---,0.00,VWS V14.01,2013-06-05 07:40:00,
2013-06-05 02:45:00,75.8,72.3,29.81,SE,146,3.0,3.0,89,0.00,,---,0.00,VWS V14.01,2013-06-05 07:45:00,
2013-06-05 02:50:00,75.8,72.3,29.80,SSE,156,3.0,6.0,89,0.00,,---,0.00,VWS V14.01,2013-06-05 07:50:00,
2013-06-05 02:55:00,75.8,72.3,29.80,SSE,153,2.0,4.0,89,0.00,,---,0.00,VWS V14.01,2013-06-05 07:55:00,
2013-06-05 03:00:00,76.0,72.5,29.80,SSE,151,4.0,6.0,89,0.00,,---,0.00,VWS V14.01,2013-06-05 08:00:00,
2013-06-05 03:05:00,76.0,72.5,29.80,SSE,154,2.0,3.0,89,0.00,,---,0.00,VWS V14.01,2013-06-05 08:05:00,
2013-06-05 03:10:00,76.0,72.5,29.80,SSE,154,0.0,1.0,89,0.00,,---,0.00,VWS V14.01,2013-06-05 08:10:00,
2013-06-05 03:15:00,75.9,72.4,29.80,SSE,155,1.0,2.0,89,0.00,,---,0.00,VWS V14.01,2013-06-05 08:15:00,
2013-06-05 03:20:00,75.8,72.3,29.80,SSE,155,0.0,0.0,89,0.00,,---,0.00,VWS V14.01,2013-06-05 08:20:00,
2013-06-05 03:25:00,75.8,72.7,29.80,SSE,155,0.0,0.0,90,0.00,,---,0.00,VWS V14.01,2013-06-05 08:25:00,
2013-06-05 03:30:00,75.7,72.6,29.80,SSE,155,0.0,0.0,90,0.00,,---,0.00,VWS V14.01,2013-06-05 08:30:00,
2013-06-05 03:35:00,75.6,72.5,29.80,SSE,155,0.0,0.0,90,0.00,,---,0.00,VWS V14.01,2013-06-05 08:35:00,
2013-06-05 03:40:00,75.5,72.4,29.80,SSE,155,0.0,0.0,90,0.00,,---,0.00,VWS V14.01,2013-06-05 08:40:00,
2013-06-05 03:45:00,75.3,72.2,29.80,SSE,155,0.0,0.0,90,0.00,,---,0.00,VWS V14.01,2013-06-05 08:45:00,
2013-06-05 03:50:00,75.2,72.1,29.79,SSE,155,0.0,0.0,90,0.00,,---,0.00,VWS V14.01,2013-06-05 08:50:00,
2013-06-05 03:55:00,75.1,72.0,29.79,SSE,155,0.0,0.0,90,0.00,,---,0.00,VWS V14.01,2013-06-05 08:55:00,
2013-06-05 04:00:00,75.0,72.2,29.79,SSE,155,1.0,3.0,91,0.00,,---,0.00,VWS V14.01,2013-06-05 09:00:00,
2013-06-05 04:05:00,75.0,72.2,29.79,SSE,155,1.0,2.0,91,0.00,,---,0.00,VWS V14.01,2013-06-05 09:05:00,
2013-06-05 04:10:00,74.8,72.0,29.78,SSE,155,0.0,0.0,91,0.00,,---,0.00,VWS V14.01,2013-06-05 09:10:00,
2013-06-05 04:15:00,74.5,71.4,29.78,SSE,155,1.0,1.0,90,0.00,,---,0.00,VWS V14.01,2013-06-05 09:15:00,
2013-06-05 04:20:00,74.1,71.3,29.78,SSE,155,0.0,0.0,91,0.00,,---,0.00,VWS V14.01,2013-06-05 09:20:00,
2013-06-05 04:25:00,73.8,71.0,29.78,SSE,155,0.0,0.0,91,0.00,,---,0.00,VWS V14.01,2013-06-05 09:25:00,
2013-06-05 04:30:00,73.8,71.0,29.78,SSE,155,0.0,0.0,91,0.00,,---,0.00,VWS V14.01,2013-06-05 09:30:00,
2013-06-05 04:35:00,73.7,70.9,29.78,SSE,155,0.0,0.0,91,0.00,,---,0.00,VWS V14.01,2013-06-05 09:35:00,
2013-06-05 04:40:00,73.6,71.1,29.78,SSE,155,0.0,0.0,92,0.00,,---,0.00,VWS V14.01,2013-06-05 09:40:00,
2013-06-05 04:45:00,73.5,71.0,29.78,SSE,155,0.0,0.0,92,0.00,,---,0.00,VWS V14.01,2013-06-05 09:45:00,
2013-06-05 04:50:00,73.3,70.8,29.78,SSE,155,0.0,0.0,92,0.00,,---,0.00,VWS V14.01,2013-06-05 09:50:00,
2013-06-05 04:55:00,73.3,70.8,29.78,SSE,155,0.0,0.0,92,0.00,,---,0.00,VWS V14.01,2013-06-05 09:55:00,
2013-06-05 05:00:00,73.2,70.7,29.78,SSE,155,0.0,0.0,92,0.00,,---,0.00,VWS V14.01,2013-06-05 10:00:00,
2013-06-05 05:05:00,73.1,70.6,29.78,SSE,155,0.0,0.0,92,0.00,,---,0.00,VWS V14.01,2013-06-05 10:05:00,
2013-06-05 05:10:00,73.0,70.5,29.78,SSE,155,0.0,0.0,92,0.00,,---,0.00,VWS V14.01,2013-06-05 10:10:00,
2013-06-05 05:15:00,72.8,70.3,29.78,SSE,155,0.0,0.0,92,0.00,,---,0.00,VWS V14.01,2013-06-05 10:15:00,
2013-06-05 05:20:00,72.6,70.2,29.78,SSE,155,0.0,0.0,92,0.00,,---,0.00,VWS V14.01,2013-06-05 10:20:00,
2013-06-05 05:25:00,72.5,70.1,29.78,SSE,155,0.0,0.0,92,0.00,,---,0.00,VWS V14.01,2013-06-05 10:25:00,
2013-06-05 05:30:00,72.4,70.3,29.78,SSE,155,0.0,0.0,93,0.00,,---,0.00,VWS V14.01,2013-06-05 10:30:00,
2013-06-05 05:35:00,72.3,70.2,29.78,SSE,155,0.0,0.0,93,0.00,,---,0.00,VWS V14.01,2013-06-05 10:35:00,
2013-06-05 05:40:00,72.3,70.2,29.78,SSE,155,0.0,0.0,93,0.00,,---,0.00,VWS V14.01,2013-06-05 10:40:00,
2013-06-05 05:45:00,72.4,70.3,29.78,SSE,155,0.0,0.0,93,0.00,,---,0.00,VWS V14.01,2013-06-05 10:45:00,
2013-06-05 05:50:00,72.4,70.3,29.78,SSE,155,0.0,0.0,93,0.00,,---,0.00,VWS V14.01,2013-06-05 10:50:00,
2013-06-05 05:55:00,72.3,70.2,29.78,SSE,155,0.0,0.0,93,0.00,,---,0.00,VWS V14.01,2013-06-05 10:55:00,
2013-06-05 06:00:00,72.2,70.1,29.78,SSE,155,0.0,0.0,93,0.00,,---,0.00,VWS V14.01,2013-06-05 11:00:00,
2013-06-05 06:05:00,72.1,70.0,29.78,SSE,155,0.0,0.0,93,0.00,,---,0.00,VWS V14.01,2013-06-05 11:05:00,
2013-06-05 06:10:00,71.9,69.8,29.78,SSE,155,0.0,0.0,93,0.00,,---,0.00,VWS V14.01,2013-06-05 11:10:00,
2013-06-05 06:14:00,71.7,69.6,29.78,SSE,155,0.0,0.0,93,0.00,,---,0.00,VWS V14.01,2013-06-05 11:14:00,
2013-06-05 06:19:00,71.6,69.5,29.78,SSE,155,0.0,0.0,93,0.00,,---,0.00,VWS V14.01,2013-06-05 11:19:00,
2013-06-05 06:24:00,71.5,69.4,29.78,SSE,155,0.0,0.0,93,0.00,,---,0.00,VWS V14.01,2013-06-05 11:24:00,
2013-06-05 06:29:00,71.7,69.9,29.78,SSE,155,0.0,0.0,94,0.00,,---,0.00,VWS V14.01,2013-06-05 11:29:00,
2013-06-05 06:34:00,71.8,70.0,29.78,SSE,155,0.0,0.0,94,0.00,,---,0.00,VWS V14.01,2013-06-05 11:34:00,
2013-06-05 06:39:00,71.7,69.9,29.78,SSE,155,0.0,0.0,94,0.00,,---,0.00,VWS V14.01,2013-06-05 11:39:00,
2013-06-05 06:44:00,71.8,70.0,29.78,SSE,155,0.0,0.0,94,0.00,,---,0.00,VWS V14.01,2013-06-05 11:44:00,
2013-06-05 06:49:00,71.9,70.1,29.78,SSE,155,0.0,0.0,94,0.00,,---,0.00,VWS V14.01,2013-06-05 11:49:00,
2013-06-05 06:54:00,72.0,70.2,29.78,SSE,155,0.0,0.0,94,0.00,,---,0.00,VWS V14.01,2013-06-05 11:54:00,
2013-06-05 06:59:00,71.9,70.1,29.78,South,176,0.0,0.0,94,0.00,,---,0.00,VWS V14.01,2013-06-05 11:59:00,
2013-06-05 07:04:00,71.8,70.0,29.78,South,176,0.0,0.0,94,0.00,,---,0.00,VWS V14.01,2013-06-05 12:04:00,
2013-06-05 07:09:00,71.8,70.0,29.78,NNW,347,0.0,0.0,94,0.00,,---,0.00,VWS V14.01,2013-06-05 12:09:00,
2013-06-05 07:14:00,71.9,70.1,29.79,NNE,15,0.0,0.0,94,0.00,,---,0.00,VWS V14.01,2013-06-05 12:14:00,
2013-06-05 07:19:00,72.1,70.3,29.79,NE,46,0.0,0.0,94,0.00,,---,0.00,VWS V14.01,2013-06-05 12:19:00,
2013-06-05 07:24:00,72.6,71.1,29.80,NE,45,0.0,0.0,95,0.00,,---,0.00,VWS V14.01,2013-06-05 12:24:00,
2013-06-05 07:29:00,73.1,71.6,29.80,NNE,19,0.0,0.0,95,0.00,,---,0.00,VWS V14.01,2013-06-05 12:29:00,
2013-06-05 07:34:00,73.7,72.2,29.80,WSW,243,0.0,0.0,95,0.00,,---,0.00,VWS V14.01,2013-06-05 12:34:00,
2013-06-05 07:39:00,74.2,72.7,29.80,NNE,21,0.0,0.0,95,0.00,,---,0.00,VWS V14.01,2013-06-05 12:39:00,
2013-06-05 07:44:00,74.7,73.2,29.80,NE,51,0.0,0.0,95,0.00,,---,0.00,VWS V14.01,2013-06-05 12:44:00,
2013-06-05 07:49:00,75.0,73.5,29.80,West,272,0.0,0.0,95,0.00,,---,0.00,VWS V14.01,2013-06-05 12:49:00,
2013-06-05 07:54:00,75.2,73.7,29.80,ENE,78,0.0,0.0,95,0.00,,---,0.00,VWS V14.01,2013-06-05 12:54:00,
2013-06-05 07:59:00,75.6,74.1,29.80,SSE,162,0.0,0.0,95,0.00,,---,0.00,VWS V14.01,2013-06-05 12:59:00,
2013-06-05 08:04:00,75.9,74.4,29.80,NW,310,0.0,0.0,95,0.00,,---,0.00,VWS V14.01,2013-06-05 13:04:00,
2013-06-05 08:09:00,76.3,74.8,29.80,NW,325,0.0,1.0,95,0.00,,---,0.00,VWS V14.01,2013-06-05 13:09:00,
2013-06-05 08:14:00,76.7,75.2,29.80,NW,326,0.0,0.0,95,0.00,,---,0.00,VWS V14.01,2013-06-05 13:14:00,
2013-06-05 08:19:00,77.0,75.1,29.81,NW,326,0.0,0.0,94,0.00,,---,0.00,VWS V14.01,2013-06-05 13:19:00,
2013-06-05 08:24:00,77.4,75.5,29.81,NW,326,0.0,0.0,94,0.00,,---,0.00,VWS V14.01,2013-06-05 13:24:00,
2013-06-05 08:29:00,77.6,75.7,29.81,SSE,153,0.0,0.0,94,0.00,,---,0.00,VWS V14.01,2013-06-05 13:29:00,
2013-06-05 08:34:00,77.9,76.0,29.81,ENE,59,0.0,2.0,94,0.00,,---,0.00,VWS V14.01,2013-06-05 13:34:00,
2013-06-05 08:39:00,78.1,75.9,29.81,ENE,59,0.0,0.0,93,0.00,,---,0.00,VWS V14.01,2013-06-05 13:39:00,
2013-06-05 08:44:00,78.4,75.9,29.81,SSE,160,0.0,0.0,92,0.00,,---,0.00,VWS V14.01,2013-06-05 13:44:00,
2013-06-05 08:49:00,78.9,76.4,29.81,SSE,160,0.0,0.0,92,0.00,,---,0.00,VWS V14.01,2013-06-05 13:49:00,
2013-06-05 08:54:00,79.6,77.1,29.81,South,174,0.0,0.0,92,0.00,,---,0.00,VWS V14.01,2013-06-05 13:54:00,
2013-06-05 08:59:00,80.0,76.8,29.81,South,189,0.0,4.0,90,0.00,,---,0.00,VWS V14.01,2013-06-05 13:59:00,
2013-06-05 09:04:00,80.4,76.9,29.81,SSE,161,1.0,2.0,89,0.00,,---,0.00,VWS V14.01,2013-06-05 14:04:00,
2013-06-05 09:09:00,80.7,76.5,29.81,South,172,0.0,0.0,87,0.00,,---,0.00,VWS V14.01,2013-06-05 14:09:00,
2013-06-05 09:14:00,81.0,76.4,29.81,SSW,213,3.0,4.0,86,0.00,,---,0.00,VWS V14.01,2013-06-05 14:14:00,
2013-06-05 09:19:00,81.4,76.5,29.81,SW,218,4.0,6.0,85,0.00,,---,0.00,VWS V14.01,2013-06-05 14:19:00,
2013-06-05 09:24:00,81.6,76.3,29.81,SSW,196,3.0,6.0,84,0.00,,---,0.00,VWS V14.01,2013-06-05 14:24:00,
2013-06-05 09:29:00,81.7,76.0,29.81,SSW,194,3.0,3.0,83,0.00,,---,0.00,VWS V14.01,2013-06-05 14:29:00,
2013-06-05 09:34:00,82.1,76.8,29.81,SW,221,2.0,9.0,84,0.00,,---,0.00,VWS V14.01,2013-06-05 14:34:00,
2013-06-05 09:39:00,82.7,76.7,29.81,SSW,202,7.0,7.0,82,0.00,,---,0.00,VWS V14.01,2013-06-05 14:39:00,
2013-06-05 09:44:00,83.2,76.0,29.81,South,182,3.0,6.0,79,0.00,,---,0.00,VWS V14.01,2013-06-05 14:44:00,
2013-06-05 09:49:00,83.6,76.0,29.81,SSW,192,1.0,3.0,78,0.00,,---,0.00,VWS V14.01,2013-06-05 14:49:00,
2013-06-05 09:54:00,83.6,75.6,29.81,SSW,199,0.0,6.0,77,0.00,,---,0.00,VWS V14.01,2013-06-05 14:54:00,
2013-06-05 09:59:00,83.6,75.2,29.81,SSW,204,0.0,2.0,76,0.00,,---,0.00,VWS V14.01,2013-06-05 14:59:00,
2013-06-05 10:04:00,84.2,75.4,29.81,South,182,6.0,9.0,75,0.00,,---,0.00,VWS V14.01,2013-06-05 15:04:00,
2013-06-05 10:09:00,84.9,74.4,29.81,ESE,107,3.0,6.0,71,0.00,,---,0.00,VWS V14.01,2013-06-05 15:09:00,
2013-06-05 10:14:00,85.0,74.1,29.82,ESE,118,0.0,2.0,70,0.00,,---,0.00,VWS V14.01,2013-06-05 15:14:00,
2013-06-05 10:19:00,85.0,74.6,29.81,ESE,123,2.0,3.0,71,0.00,,---,0.00,VWS V14.01,2013-06-05 15:19:00,
2013-06-05 10:24:00,85.0,75.4,29.81,South,182,7.0,7.0,73,0.00,,---,0.00,VWS V14.01,2013-06-05 15:24:00,
2013-06-05 10:29:00,85.5,75.0,29.81,SSE,165,2.0,10.0,71,0.00,,---,0.00,VWS V14.01,2013-06-05 15:29:00,
2013-06-05 10:34:00,85.6,74.7,29.81,South,185,3.0,4.0,70,0.00,,---,0.00,VWS V14.01,2013-06-05 15:34:00,
2013-06-05 10:39:00,86.0,74.7,29.81,SSE,158,3.0,5.0,69,0.00,,---,0.00,VWS V14.01,2013-06-05 15:39:00,
2013-06-05 10:44:00,86.6,73.9,29.81,SSE,148,4.0,6.0,66,0.00,,---,0.00,VWS V14.01,2013-06-05 15:44:00,
2013-06-05 10:49:00,87.3,74.1,29.81,ESE,102,3.0,4.0,65,0.00,,---,0.00,VWS V14.01,2013-06-05 15:49:00,
2013-06-05 10:54:00,87.5,72.9,29.81,ESE,105,5.0,5.0,62,0.00,,---,0.00,VWS V14.01,2013-06-05 15:54:00,
2013-06-05 10:59:00,87.4,73.7,29.81,South,170,5.0,6.0,64,0.00,,---,0.00,VWS V14.01,2013-06-05 15:59:00,
2013-06-05 11:04:00,88.0,74.3,29.81,ESE,104,3.0,4.0,64,0.00,,---,0.00,VWS V14.01,2013-06-05 16:04:00,
2013-06-05 11:09:00,88.2,74.5,29.82,SSE,163,4.0,5.0,64,0.00,,---,0.00,VWS V14.01,2013-06-05 16:09:00,
2013-06-05 11:14:00,87.5,73.4,29.81,SE,140,0.0,1.0,63,0.00,,---,0.00,VWS V14.01,2013-06-05 16:14:00,
2013-06-05 11:19:00,87.5,75.2,29.81,South,175,0.0,0.0,67,0.00,,---,0.00,VWS V14.01,2013-06-05 16:19:00,
2013-06-05 11:24:00,87.5,73.8,29.81,SE,126,1.0,5.0,64,0.00,,---,0.00,VWS V14.01,2013-06-05 16:24:00,
2013-06-05 11:29:00,87.6,73.5,29.81,South,178,2.0,5.0,63,0.00,,---,0.00,VWS V14.01,2013-06-05 16:29:00,
2013-06-05 11:34:00,87.9,74.7,29.81,South,169,1.0,3.0,65,0.00,,---,0.00,VWS V14.01,2013-06-05 16:34:00,
2013-06-05 11:39:00,88.4,74.2,29.81,ESE,105,2.0,2.0,63,0.00,,---,0.00,VWS V14.01,2013-06-05 16:39:00,
2013-06-05 11:44:00,88.1,73.0,29.81,ESE,118,6.0,7.0,61,0.00,,---,0.00,VWS V14.01,2013-06-05 16:44:00,
2013-06-05 11:49:00,87.9,73.3,29.81,ESE,114,6.0,6.0,62,0.00,,---,0.00,VWS V14.01,2013-06-05 16:49:00,
2013-06-05 11:54:00,87.8,72.7,29.81,ESE,118,1.0,1.0,61,0.00,,---,0.00,VWS V14.01,2013-06-05 16:54:00,
2013-06-05 11:58:00,88.2,72.6,29.81,ESE,115,3.0,4.0,60,0.00,,---,0.00,VWS V14.01,2013-06-05 16:58:00,
2013-06-05 12:03:00,88.4,70.2,29.81,East,88,3.0,3.0,55,0.00,,---,0.00,VWS V14.01,2013-06-05 17:03:00,
2013-06-05 12:08:00,88.2,73.1,29.81,ESE,115,2.0,2.0,61,0.00,,---,0.00,VWS V14.01,2013-06-05 17:08:00,
2013-06-05 12:13:00,88.3,73.6,29.81,East,98,0.0,0.0,62,0.00,,---,0.00,VWS V14.01,2013-06-05 17:13:00,
2013-06-05 12:18:00,88.3,73.6,29.81,SSE,149,5.0,5.0,62,0.00,,---,0.00,VWS V14.01,2013-06-05 17:18:00,
2013-06-05 12:23:00,88.8,74.6,29.81,SE,138,2.0,3.0,63,0.00,,---,0.00,VWS V14.01,2013-06-05 17:23:00,
2013-06-05 12:28:00,88.6,73.9,29.81,SE,145,3.0,3.0,62,0.00,,---,0.00,VWS V14.01,2013-06-05 17:28:00,
2013-06-05 12:33:00,87.9,74.2,29.81,East,101,5.0,7.0,64,0.00,,---,0.00,VWS V14.01,2013-06-05 17:33:00,
2013-06-05 12:38:00,87.3,74.6,29.81,ESE,105,2.0,3.0,66,0.00,,---,0.00,VWS V14.01,2013-06-05 17:38:00,
2013-06-05 12:43:00,87.3,74.6,29.81,ESE,110,4.0,5.0,66,0.00,,---,0.00,VWS V14.01,2013-06-05 17:43:00,
2013-06-05 12:48:00,87.4,73.7,29.81,ESE,103,7.0,11.0,64,0.00,,---,0.00,VWS V14.01,2013-06-05 17:48:00,
2013-06-05 12:53:00,86.9,73.7,29.81,ESE,103,7.0,7.0,65,0.00,,---,0.00,VWS V14.01,2013-06-05 17:53:00,
2013-06-05 12:58:00,86.9,74.6,29.80,ESE,106,8.0,8.0,67,0.00,,---,0.00,VWS V14.01,2013-06-05 17:58:00,
2013-06-05 13:03:00,86.9,74.2,29.81,East,98,3.0,6.0,66,0.00,,---,0.00,VWS V14.01,2013-06-05 18:03:00,
2013-06-05 13:08:00,86.8,75.0,29.81,ESE,102,6.0,9.0,68,0.00,,---,0.00,VWS V14.01,2013-06-05 18:08:00,
2013-06-05 13:13:00,87.0,74.7,29.80,ENE,67,3.0,4.0,67,0.00,,---,0.00,VWS V14.01,2013-06-05 18:13:00,
2013-06-05 13:18:00,87.2,75.8,29.80,East,90,4.0,4.0,69,0.00,,---,0.00,VWS V14.01,2013-06-05 18:18:00,
2013-06-05 13:23:00,87.5,74.3,29.80,ESE,105,3.0,6.0,65,0.00,,---,0.00,VWS V14.01,2013-06-05 18:23:00,
2013-06-05 13:28:00,87.2,74.9,29.80,ESE,103,7.0,11.0,67,0.00,,---,0.00,VWS V14.01,2013-06-05 18:28:00,
2013-06-05 13:33:00,87.3,75.0,29.80,East,97,12.0,12.0,67,0.00,,---,0.00,VWS V14.01,2013-06-05 18:33:00,
2013-06-05 13:38:00,87.4,75.1,29.80,ESE,117,1.0,1.0,67,0.00,,---,0.00,VWS V14.01,2013-06-05 18:38:00,
2013-06-05 13:43:00,87.2,75.4,29.80,East,101,2.0,4.0,68,0.00,,---,0.00,VWS V14.01,2013-06-05 18:43:00,
2013-06-05 13:48:00,87.0,74.3,29.80,ESE,109,8.0,10.0,66,0.00,,---,0.00,VWS V14.01,2013-06-05 18:48:00,
2013-06-05 13:53:00,86.6,73.9,29.80,ESE,103,5.0,12.0,66,0.00,,---,0.00,VWS V14.01,2013-06-05 18:53:00,
2013-06-05 13:58:00,86.9,75.1,29.79,East,98,4.0,6.0,68,0.00,,---,0.00,VWS V14.01,2013-06-05 18:58:00,
2013-06-05 14:03:00,87.8,75.5,29.80,East,101,4.0,7.0,67,0.00,,---,0.00,VWS V14.01,2013-06-05 19:03:00,
2013-06-05 14:08:00,87.8,74.6,29.80,ESE,107,4.0,10.0,65,0.00,,---,0.00,VWS V14.01,2013-06-05 19:08:00,
2013-06-05 14:13:00,87.5,74.8,29.79,ESE,104,10.0,11.0,66,0.00,,---,0.00,VWS V14.01,2013-06-05 19:13:00,
2013-06-05 14:18:00,87.4,74.7,29.79,ESE,105,6.0,12.0,66,0.00,,---,0.00,VWS V14.01,2013-06-05 19:18:00,
2013-06-05 14:23:00,87.3,75.0,29.79,ESE,119,6.0,8.0,67,0.00,,---,0.00,VWS V14.01,2013-06-05 19:23:00,
2013-06-05 14:28:00,87.5,74.3,29.79,East,88,7.0,12.0,65,0.00,,---,0.00,VWS V14.01,2013-06-05 19:28:00,
2013-06-05 14:33:00,87.4,74.7,29.79,ESE,118,11.0,11.0,66,0.00,,---,0.00,VWS V14.01,2013-06-05 19:33:00,
2013-06-05 14:38:00,87.4,74.7,29.79,SE,130,8.0,8.0,66,0.00,,---,0.00,VWS V14.01,2013-06-05 19:38:00,
2013-06-05 14:43:00,87.6,74.8,29.79,ESE,117,5.0,9.0,66,0.00,,---,0.00,VWS V14.01,2013-06-05 19:43:00,
2013-06-05 14:48:00,87.3,75.0,29.79,ESE,108,10.0,10.0,67,0.00,,---,0.00,VWS V14.01,2013-06-05 19:48:00,
2013-06-05 14:53:00,87.4,75.1,29.78,East,88,6.0,11.0,67,0.00,,---,0.00,VWS V14.01,2013-06-05 19:53:00,
2013-06-05 14:58:00,87.5,74.3,29.78,East,99,6.0,9.0,65,0.00,,---,0.00,VWS V14.01,2013-06-05 19:58:00,
2013-06-05 15:03:00,87.2,74.5,29.78,ESE,110,7.0,10.0,66,0.00,,---,0.00,VWS V14.01,2013-06-05 20:03:00,
2013-06-05 15:08:00,86.9,74.2,29.78,ESE,121,7.0,13.0,66,0.00,,---,0.00,VWS V14.01,2013-06-05 20:08:00,
2013-06-05 15:13:00,87.0,75.2,29.78,ESE,107,5.0,9.0,68,0.00,,---,0.00,VWS V14.01,2013-06-05 20:13:00,
2013-06-05 15:18:00,87.3,75.9,29.78,ESE,113,3.0,6.0,69,0.00,,---,0.00,VWS V14.01,2013-06-05 20:18:00,
2013-06-05 15:23:00,87.5,76.1,29.78,East,80,12.0,12.0,69,0.00,,---,0.00,VWS V14.01,2013-06-05 20:23:00,
2013-06-05 15:28:00,87.5,75.6,29.78,ESE,106,5.0,9.0,68,0.00,,---,0.00,VWS V14.01,2013-06-05 20:28:00,
2013-06-05 15:33:00,87.7,75.8,29.78,East,101,7.0,8.0,68,0.00,,---,0.00,VWS V14.01,2013-06-05 20:33:00,
2013-06-05 15:38:00,87.3,75.4,29.77,East,101,8.0,10.0,68,0.00,,---,0.00,VWS V14.01,2013-06-05 20:38:00,
2013-06-05 15:43:00,87.0,76.0,29.77,ESE,105,13.0,13.0,70,0.00,,---,0.00,VWS V14.01,2013-06-05 20:43:00,
2013-06-05 15:48:00,87.0,76.0,29.77,ESE,103,9.0,10.0,70,0.00,,---,0.00,VWS V14.01,2013-06-05 20:48:00,
2013-06-05 15:53:00,87.1,75.7,29.77,SE,129,4.0,7.0,69,0.00,,---,0.00,VWS V14.01,2013-06-05 20:53:00,
2013-06-05 15:58:00,87.3,75.4,29.77,SE,146,4.0,9.0,68,0.00,,---,0.00,VWS V14.01,2013-06-05 20:58:00,
2013-06-05 16:03:00,87.3,75.9,29.77,ESE,103,12.0,13.0,69,0.00,,---,0.00,VWS V14.01,2013-06-05 21:03:00,
2013-06-05 16:08:00,86.9,75.5,29.77,East,94,6.0,7.0,69,0.00,,---,0.00,VWS V14.01,2013-06-05 21:08:00,
2013-06-05 16:13:00,86.8,75.8,29.77,ESE,109,10.0,11.0,70,0.00,,---,0.00,VWS V14.01,2013-06-05 21:13:00,
2013-06-05 16:18:00,86.8,75.8,29.77,ESE,115,8.0,8.0,70,0.00,,---,0.00,VWS V14.01,2013-06-05 21:18:00,
2013-06-05 16:23:00,86.9,75.5,29.77,ESE,106,7.0,11.0,69,0.00,,---,0.00,VWS V14.01,2013-06-05 21:23:00,
2013-06-05 16:28:00,86.8,75.4,29.77,East,94,7.0,10.0,69,0.00,,---,0.00,VWS V14.01,2013-06-05 21:28:00,
2013-06-05 16:33:00,86.8,75.4,29.77,ESE,102,10.0,10.0,69,0.00,,---,0.00,VWS V14.01,2013-06-05 21:33:00,
2013-06-05 16:38:00,86.8,75.0,29.77,ESE,106,10.0,10.0,68,0.00,,---,0.00,VWS V14.01,2013-06-05 21:38:00,
2013-06-05 16:43:00,86.6,75.2,29.77,ESE,111,5.0,11.0,69,0.00,,---,0.00,VWS V14.01,2013-06-05 21:43:00,
2013-06-05 16:48:00,86.4,74.6,29.76,SE,127,4.0,7.0,68,0.00,,---,0.00,VWS V14.01,2013-06-05 21:48:00,
2013-06-05 16:53:00,86.8,74.5,29.76,ESE,107,6.0,12.0,67,0.00,,---,0.00,VWS V14.01,2013-06-05 21:53:00,
2013-06-05 16:58:00,86.7,74.9,29.76,ESE,110,6.0,11.0,68,0.00,,---,0.00,VWS V14.01,2013-06-05 21:58:00,
2013-06-05 17:03:00,86.8,74.5,29.76,ESE,114,9.0,11.0,67,0.00,,---,0.00,VWS V14.01,2013-06-05 22:03:00,
2013-06-05 17:08:00,86.6,74.8,29.76,ESE,105,5.0,7.0,68,0.00,,---,0.00,VWS V14.01,2013-06-05 22:08:00,
2013-06-05 17:13:00,86.6,74.8,29.76,ESE,113,7.0,7.0,68,0.00,,---,0.00,VWS V14.01,2013-06-05 22:13:00,
2013-06-05 17:18:00,86.8,74.5,29.76,ESE,103,7.0,7.0,67,0.00,,---,0.00,VWS V14.01,2013-06-05 22:18:00,
2013-06-05 17:23:00,86.8,74.1,29.76,SE,132,5.0,10.0,66,0.00,,---,0.00,VWS V14.01,2013-06-05 22:23:00,
2013-06-05 17:28:00,86.5,73.8,29.76,East,99,10.0,11.0,66,0.00,,---,0.00,VWS V14.01,2013-06-05 22:28:00,
2013-06-05 17:33:00,86.4,74.2,29.76,ESE,106,12.0,12.0,67,0.00,,---,0.00,VWS V14.01,2013-06-05 22:33:00,
2013-06-05 17:38:00,86.5,74.7,29.76,East,82,5.0,6.0,68,0.00,,---,0.00,VWS V14.01,2013-06-05 22:38:00,
2013-06-05 17:43:00,86.3,74.9,29.75,ESE,117,10.0,10.0,69,0.00,,---,0.00,VWS V14.01,2013-06-05 22:43:00,
2013-06-05 17:48:00,86.4,75.5,29.76,East,100,10.0,11.0,70,0.00,,---,0.00,VWS V14.01,2013-06-05 22:48:00,
2013-06-05 17:53:00,86.1,75.2,29.75,East,98,6.0,9.0,70,0.00,,---,0.00,VWS V14.01,2013-06-05 22:53:00,
2013-06-05 17:58:00,85.9,75.4,29.75,ESE,105,8.0,8.0,71,0.00,,---,0.00,VWS V14.01,2013-06-05 22:58:00,
2013-06-05 18:03:00,85.9,74.6,29.76,East,101,5.0,8.0,69,0.00,,---,0.00,VWS V14.01,2013-06-05 23:03:00,
2013-06-05 18:08:00,85.7,74.8,29.75,East,100,9.0,10.0,70,0.00,,---,0.00,VWS V14.01,2013-06-05 23:08:00,
2013-06-05 18:13:00,85.4,75.3,29.75,ENE,74,9.0,9.0,72,0.00,,---,0.00,VWS V14.01,2013-06-05 23:13:00,
2013-06-05 18:18:00,85.6,76.0,29.75,East,84,8.0,10.0,73,0.00,,---,0.00,VWS V14.01,2013-06-05 23:18:00,
2013-06-05 18:23:00,85.7,76.1,29.75,SE,126,7.0,12.0,73,0.00,,---,0.00,VWS V14.01,2013-06-05 23:23:00,
2013-06-05 18:28:00,85.2,75.6,29.75,ESE,105,3.0,6.0,73,0.00,,---,0.00,VWS V14.01,2013-06-05 23:28:00,
2013-06-05 18:33:00,85.3,76.1,29.75,ENE,57,4.0,5.0,74,0.00,,---,0.00,VWS V14.01,2013-06-05 23:33:00,
2013-06-05 18:38:00,85.3,76.5,29.75,ESE,110,13.0,13.0,75,0.00,,---,0.00,VWS V14.01,2013-06-05 23:38:00,
2013-06-05 18:43:00,84.3,75.5,29.75,East,101,14.0,14.0,75,0.00,,---,0.00,VWS V14.01,2013-06-05 23:43:00,
2013-06-05 18:48:00,84.1,76.1,29.75,East,91,5.0,5.0,77,0.00,,---,0.00,VWS V14.01,2013-06-05 23:48:00,
2013-06-05 18:52:00,84.0,76.0,29.75,ENE,72,7.0,9.0,77,0.00,,---,0.00,VWS V14.01,2013-06-05 23:52:00,
2013-06-05 18:57:00,84.1,75.7,29.75,ESE,102,3.0,7.0,76,0.00,,---,0.00,VWS V14.01,2013-06-05 23:57:00,
2013-06-05 19:02:00,83.9,75.5,29.75,East,97,7.0,12.0,76,0.00,,---,0.00,VWS V14.01,2013-06-06 00:02:00,
2013-06-05 19:07:00,83.5,75.1,29.75,East,101,8.0,10.0,76,0.00,,---,0.00,VWS V14.01,2013-06-06 00:07:00,
2013-06-05 19:12:00,83.3,75.3,29.75,ESE,103,7.0,11.0,77,0.00,,---,0.00,VWS V14.01,2013-06-06 00:12:00,
2013-06-05 19:17:00,83.2,75.2,29.75,ENE,75,2.0,9.0,77,0.00,,---,0.00,VWS V14.01,2013-06-06 00:17:00,
2013-06-05 19:22:00,83.3,74.9,29.75,NE,44,6.0,6.0,76,0.00,,---,0.00,VWS V14.01,2013-06-06 00:22:00,
2013-06-05 19:27:00,83.2,74.1,29.75,ESE,103,8.0,11.0,74,0.00,,---,0.00,VWS V14.01,2013-06-06 00:27:00,
2013-06-05 19:32:00,83.1,74.0,29.75,East,87,7.0,7.0,74,0.00,,---,0.00,VWS V14.01,2013-06-06 00:32:00,
2013-06-05 19:37:00,83.0,74.3,29.75,East,95,7.0,7.0,75,0.00,,---,0.00,VWS V14.01,2013-06-06 00:37:00,
2013-06-05 19:42:00,82.9,74.2,29.75,East,101,6.0,6.0,75,0.00,,---,0.00,VWS V14.01,2013-06-06 00:42:00,
2013-06-05 19:47:00,82.8,74.1,29.75,ESE,109,6.0,11.0,75,0.00,,---,0.00,VWS V14.01,2013-06-06 00:47:00,
2013-06-05 19:52:00,82.6,73.9,29.75,ESE,113,7.0,7.0,75,0.00,,---,0.00,VWS V14.01,2013-06-06 00:52:00,
2013-06-05 19:57:00,82.5,73.8,29.75,East,99,4.0,5.0,75,0.00,,---,0.00,VWS V14.01,2013-06-06 00:57:00,
2013-06-05 20:02:00,82.4,74.1,29.75,ESE,121,5.0,5.0,76,0.00,,---,0.00,VWS V14.01,2013-06-06 01:02:00,
2013-06-05 20:07:00,82.1,73.8,29.75,East,91,5.0,5.0,76,0.00,,---,0.00,VWS V14.01,2013-06-06 01:07:00,
2013-06-05 20:12:00,82.0,74.1,29.75,ESE,123,5.0,5.0,77,0.00,,---,0.00,VWS V14.01,2013-06-06 01:12:00,
2013-06-05 20:17:00,81.9,74.8,29.75,East,101,6.0,6.0,79,0.00,,---,0.00,VWS V14.01,2013-06-06 01:17:00,
2013-06-05 20:22:00,81.7,74.2,29.75,ESE,123,4.0,9.0,78,0.00,,---,0.00,VWS V14.01,2013-06-06 01:22:00,
2013-06-05 20:27:00,81.6,74.1,29.75,ESE,115,4.0,8.0,78,0.00,,---,0.00,VWS V14.01,2013-06-06 01:27:00,
2013-06-05 20:32:00,81.6,74.5,29.75,SE,126,1.0,3.0,79,0.00,,---,0.00,VWS V14.01,2013-06-06 01:32:00,
2013-06-05 20:37:00,81.3,74.5,29.75,SE,136,3.0,6.0,80,0.00,,---,0.00,VWS V14.01,2013-06-06 01:37:00,
2013-06-05 20:42:00,81.1,74.7,29.75,ESE,112,4.0,6.0,81,0.00,,---,0.00,VWS V14.01,2013-06-06 01:42:00,
2013-06-05 20:47:00,80.9,74.5,29.75,SSE,153,3.0,6.0,81,0.00,,---,0.00,VWS V14.01,2013-06-06 01:47:00,
2013-06-05 20:52:00,80.8,74.8,29.75,SE,126,3.0,5.0,82,0.00,,---,0.00,VWS V14.01,2013-06-06 01:52:00,
2013-06-05 20:57:00,80.6,74.6,29.75,SE,126,4.0,5.0,82,0.00,,---,0.00,VWS V14.01,2013-06-06 01:57:00,
2013-06-05 21:02:00,80.5,74.5,29.75,SE,129,5.0,6.0,82,0.00,,---,0.00,VWS V14.01,2013-06-06 02:02:00,
2013-06-05 21:07:00,80.4,74.8,29.75,ESE,110,4.0,4.0,83,0.00,,---,0.00,VWS V14.01,2013-06-06 02:07:00,
2013-06-05 21:12:00,80.4,74.8,29.76,ESE,113,2.0,3.0,83,0.00,,---,0.00,VWS V14.01,2013-06-06 02:12:00,
2013-06-05 21:17:00,80.3,75.0,29.76,ESE,116,3.0,5.0,84,0.00,,---,0.00,VWS V14.01,2013-06-06 02:17:00,
2013-06-05 21:22:00,80.3,75.0,29.75,ESE,115,3.0,4.0,84,0.00,,---,0.00,VWS V14.01,2013-06-06 02:22:00,
2013-06-05 21:27:00,80.3,75.4,29.75,ESE,106,3.0,5.0,85,0.00,,---,0.00,VWS V14.01,2013-06-06 02:27:00,
2013-06-05 21:32:00,80.2,75.3,29.76,ESE,105,3.0,5.0,85,0.00,,---,0.00,VWS V14.01,2013-06-06 02:32:00,
2013-06-05 21:37:00,80.1,75.2,29.75,ESE,123,2.0,4.0,85,0.00,,---,0.00,VWS V14.01,2013-06-06 02:37:00,
2013-06-05 21:42:00,80.0,75.1,29.76,ESE,114,3.0,4.0,85,0.00,,---,0.00,VWS V14.01,2013-06-06 02:42:00,
2013-06-05 21:47:00,79.9,75.0,29.76,SE,129,3.0,5.0,85,0.00,,---,0.00,VWS V14.01,2013-06-06 02:47:00,
2013-06-05 21:52:00,79.8,74.9,29.76,SE,127,3.0,4.0,85,0.00,,---,0.00,VWS V14.01,2013-06-06 02:52:00,
2013-06-05 21:57:00,79.6,75.1,29.76,SE,132,2.0,4.0,86,0.00,,---,0.00,VWS V14.01,2013-06-06 02:57:00,
2013-06-05 22:02:00,79.4,74.8,29.76,ESE,123,2.0,5.0,86,0.00,,---,0.00,VWS V14.01,2013-06-06 03:02:00,
2013-06-05 22:07:00,79.3,74.8,29.76,ESE,122,3.0,4.0,86,0.00,,---,0.00,VWS V14.01,2013-06-06 03:07:00,
2013-06-05 22:12:00,79.3,74.8,29.76,ESE,122,3.0,4.0,86,0.00,,---,0.00,VWS V14.01,2013-06-06 03:12:00,
2013-06-05 22:17:00,79.2,75.0,29.77,ESE,118,4.0,4.0,87,0.00,,---,0.00,VWS V14.01,2013-06-06 03:17:00,
2013-06-05 22:22:00,79.1,74.9,29.76,SE,129,3.0,6.0,87,0.00,,---,0.00,VWS V14.01,2013-06-06 03:22:00,
2013-06-05 22:27:00,79.1,74.9,29.76,SE,134,4.0,6.0,87,0.00,,---,0.00,VWS V14.01,2013-06-06 03:27:00,
2013-06-05 22:32:00,79.0,74.8,29.76,SE,143,0.0,2.0,87,0.00,,---,0.00,VWS V14.01,2013-06-06 03:32:00,
2013-06-05 22:37:00,78.8,74.6,29.76,SE,145,4.0,4.0,87,0.00,,---,0.00,VWS V14.01,2013-06-06 03:37:00,
2013-06-05 22:42:00,78.5,74.3,29.76,SE,146,1.0,1.0,87,0.00,,---,0.00,VWS V14.01,2013-06-06 03:42:00,
2013-06-05 22:47:00,78.3,74.1,29.76,SE,146,1.0,1.0,87,0.00,,---,0.00,VWS V14.01,2013-06-06 03:47:00,
2013-06-05 22:52:00,78.1,74.3,29.76,SE,146,1.0,3.0,88,0.00,,---,0.00,VWS V14.01,2013-06-06 03:52:00,
2013-06-05 22:57:00,77.9,74.1,29.76,SE,146,0.0,0.0,88,0.00,,---,0.00,VWS V14.01,2013-06-06 03:57:00,
2013-06-05 23:01:00,77.8,74.0,29.76,SE,146,0.0,1.0,88,0.00,,---,0.00,VWS V14.01,2013-06-06 04:01:00,
2013-06-05 23:06:00,77.6,73.8,29.76,SE,146,0.0,0.0,88,0.00,,---,0.00,VWS V14.01,2013-06-06 04:06:00,
2013-06-05 23:11:00,77.4,73.9,29.75,SSE,166,2.0,4.0,89,0.00,,---,0.00,VWS V14.01,2013-06-06 04:11:00,
2013-06-05 23:16:00,77.2,73.7,29.76,SSE,164,2.0,2.0,89,0.00,,---,0.00,VWS V14.01,2013-06-06 04:16:00,
2013-06-05 23:21:00,77.1,73.6,29.75,SSE,165,1.0,4.0,89,0.00,,---,0.00,VWS V14.01,2013-06-06 04:21:00,
2013-06-05 23:26:00,77.0,73.5,29.75,SSE,164,0.0,2.0,89,0.00,,---,0.00,VWS V14.01,2013-06-06 04:26:00,
2013-06-05 23:31:00,76.8,73.3,29.75,SSE,163,1.0,2.0,89,0.00,,---,0.00,VWS V14.01,2013-06-06 04:31:00,
2013-06-05 23:36:00,76.7,73.6,29.75,SSE,163,1.0,1.0,90,0.00,,---,0.00,VWS V14.01,2013-06-06 04:36:00,
2013-06-05 23:41:00,76.6,73.4,29.75,SSE,163,3.0,3.0,90,0.00,,---,0.00,VWS V14.01,2013-06-06 04:41:00,
2013-06-05 23:46:00,76.6,73.4,29.75,SSE,164,1.0,3.0,90,0.00,,---,0.00,VWS V14.01,2013-06-06 04:46:00,
2013-06-05 23:51:00,76.6,73.8,29.75,SSE,163,1.0,3.0,91,0.00,,---,0.00,VWS V14.01,2013-06-06 04:51:00,
2013-06-05 23:56:00,76.7,73.9,29.75,SSE,163,3.0,3.0,91,0.00,,---,0.00,VWS V14.01,2013-06-06 04:56:00,